El Dorado Springs, MO (64744)

10:33 PM CDT on July 30, 2014 (GMT -0500)
Nevada (KMONEVAD4) Elev 863 ft | 37.82 °N, 94.33 °W | Change Station

Current weather conditions updated 5 seconds ago

Clear
Clear
65.5 °F
Feels Like 65.5 °F
N
0.0
Wind Variable Wind from SW
Gusts 0.0 mph

Tomorrow is forecast to be Much Warmer than today.

Today
High -- | Low -- °F
--% Chance of Precip.
Yesterday
High -- | Low -- °F
Precip. -- in
6:17 AM 8:26 PM
Waxing Crescent, 15% visible
Pressure 30.09 in
Visibility 10.0 miles
Clouds Clear
Dew Point 62 °F
Humidity 88%
Rainfall 0.04 in
Snow Depth Not available.
UV 0 out of 12
Pollen 5.30 out of 12
Air Quality Not available.
Flu Activity Not available.
METAR KGLY 310315Z AUTO 00000KT 10SM CLR 18/17 A3009 RMK AO2

More Conditions Fewer Conditions

Pressure 30.09 in
Visibility 10.0 miles
Clouds Clear
Dew Point 62 °F
Humidity 88%
Rainfall 0.04 in
Snow Depth Not available.
UV 0 out of 12
Pollen 5.30 out of 12
Air Quality Not available.
Flu Activity Not available.
METAR KGLY 310315Z AUTO 00000KT 10SM CLR 18/17 A3009 RMK AO2

More Conditions Fewer Conditions

10-Day Weather Forecast

Almanac

Astronomy

Jul. 30, 2014 Rise Set
Actual Time 6:17 AM CDT 8:26 PM CDT
Civil Twilight 5:48 AM CDT 8:56 PM CDT
Nautical Twilight 5:12 AM CDT 9:31 PM CDT
Astronomical Twilight 4:33 AM CDT 10:10 PM CDT
Moon 9:45 AM CDT (7/30) 10:14 PM CDT (7/30)
Length of Visible Light 15h 07m
Length of Day
14h 09m
Tomorrow will be 1m 47s shorter.
Waxing Crescent, 15% of the Moon is Illuminated
Today
Waxing Crescent
Aug 3
First Quarter
Aug 10
Full
Aug 17
Last Quarter
Aug 25
New

Today's Extremes

State Highs State Lows

Community

WunderPhotos

Upload Photos

1,739,290 photos uploaded!

Nearby

Snow Depth

Station Depth Elevation
No new snow has been reported.

Earthquake Activity

City Distance Mag. Time & Date
No recent earthquake activity has been reported nearby.
Minimum magnitude displayed is 2.5.

Coastal Water Temperatures

Place Temperature
No Stations Reporting

Nearby Weather Stations

Station Location Temp. Dew Point Humidity Wind Precip. Elev Updated Type
Nevada, Nevada, MO 65.5 °F 62 °F 88% SW  at  0.0 mph 0.00 in / hr 863 ft 11:32 PM EDT Rapid Fire
Vernon Co. EOC, Nevada, MO 68.5 °F 64 °F 87% SSE  at  0.0 mph 0.00 in / hr 900 ft 10:33 PM CDT Rapid Fire
Between Arnica And Bugtussle, Humansville, MO 66.7 °F 62 °F 84% North  at  0.0 mph 0.00 in / hr 1010 ft 10:29 PM CDT Normal
Irwin, MO, Lamar, MO 67.0 °F 65 °F 92% South  at  0.0 mph 0.00 in / hr 955 ft 10:31 PM CDT Normal

Show More Stations Show Fewer Stations